Time;durP1;ratioP1;P1;durP2;ratioP2;P2;SDS_P1;SDS_P2;PMS_P1;PMS_P2;Temp;Humidity;BMP_temperature;BMP_pressure;BME280_temperature;BME280_humidity;BME280_pressure;Samples;Min_cycle;Max_cycle;Signal;HPM_P1;HPM_P2
2022/01/11 00:01:55;;;;;;;7.60;5.00;;;-1.50;99.90;;;;;;503054;236;27486;-68
2022/01/11 00:03:56;;;;;;;6.55;5.40;;;-1.50;99.90;;;;;;503019;236;27456;-68
2022/01/11 00:06:02;;;;;;;5.45;4.55;;;-1.50;99.90;;;;;;503048;236;27216;-68
2022/01/11 00:07:59;;;;;;;6.57;4.65;;;-1.50;99.90;;;;;;502725;236;27549;-68
2022/01/11 00:10:01;;;;;;;8.98;4.70;;;-1.60;99.90;;;;;;503055;236;27510;-68
2022/01/11 00:12:01;;;;;;;5.82;4.62;;;-1.60;99.90;;;;;;503000;236;27928;-68
2022/01/11 00:14:02;;;;;;;7.75;5.40;;;-1.60;99.90;;;;;;503029;236;27982;-68
2022/01/11 00:16:04;;;;;;;6.12;4.90;;;-1.60;99.90;;;;;;503053;236;28019;-68
2022/01/11 00:18:05;;;;;;;5.30;4.40;;;-1.60;99.90;;;;;;503070;236;27493;-68
2022/01/11 00:20:06;;;;;;;6.90;5.00;;;-1.60;99.90;;;;;;503065;236;27414;-69
2022/01/11 00:22:16;;;;;;;7.12;4.65;;;-1.60;99.90;;;;;;503055;236;27513;-68
2022/01/11 00:24:31;;;;;;;6.47;4.95;;;-1.60;99.90;;;;;;502341;236;27485;-68
2022/01/11 00:26:28;;;;;;;6.35;5.07;;;-1.70;99.90;;;;;;502777;236;27815;-68
2022/01/11 00:28:30;;;;;;;7.50;4.47;;;-1.70;99.90;;;;;;503029;236;27548;-69
2022/01/11 00:30:41;;;;;;;5.28;4.43;;;-1.70;99.90;;;;;;503074;236;27573;-68
2022/01/11 00:32:41;;;;;;;6.12;4.72;;;-1.70;99.90;;;;;;502370;236;27164;-68
2022/01/11 00:34:49;;;;;;;6.10;4.60;;;-1.70;99.90;;;;;;502380;236;27474;-68
2022/01/11 00:36:42;;;;;;;7.12;4.60;;;-1.70;99.90;;;;;;502343;236;27505;-69
2022/01/11 00:38:43;;;;;;;5.00;4.50;;;-1.80;99.90;;;;;;503059;236;27258;-68
2022/01/11 00:40:44;;;;;;;8.40;5.78;;;-1.70;99.90;;;;;;503054;236;27330;-68
2022/01/11 00:42:45;;;;;;;6.70;5.00;;;-1.80;99.90;;;;;;503038;236;27593;-68
2022/01/11 00:44:47;;;;;;;5.55;4.80;;;-1.80;99.90;;;;;;503072;236;27310;-69
2022/01/11 00:46:48;;;;;;;7.07;4.95;;;-1.90;99.90;;;;;;503018;236;27929;-69
2022/01/11 00:48:49;;;;;;;6.65;5.60;;;-1.90;99.90;;;;;;503076;236;29192;-68
2022/01/11 00:50:51;;;;;;;8.70;5.10;;;-2.00;99.90;;;;;;503060;236;27618;-68
2022/01/11 00:52:52;;;;;;;6.80;5.35;;;-2.00;99.90;;;;;;503061;236;27490;-68
2022/01/11 00:54:53;;;;;;;7.15;5.20;;;-1.90;99.90;;;;;;503060;236;27233;-68
2022/01/11 00:56:54;;;;;;;9.10;5.70;;;-1.90;99.90;;;;;;503040;236;27485;-68
2022/01/11 00:58:57;;;;;;;9.93;6.00;;;-1.90;99.90;;;;;;503081;236;27485;-68
2022/01/11 01:00:58;;;;;;;8.63;5.78;;;-1.90;99.90;;;;;;503036;236;27564;-68
2022/01/11 01:02:59;;;;;;;6.35;4.93;;;-1.90;99.90;;;;;;503067;236;27658;-69
2022/01/11 01:05:01;;;;;;;7.30;5.22;;;-1.90;99.90;;;;;;503060;236;27770;-68
2022/01/11 01:07:02;;;;;;;7.85;5.35;;;-1.90;99.90;;;;;;503041;236;29049;-68
2022/01/11 01:09:03;;;;;;;14.13;6.80;;;-1.90;99.90;;;;;;503069;236;27811;-68
2022/01/11 01:11:04;;;;;;;10.77;6.32;;;-1.90;99.90;;;;;;503016;236;27421;-68
2022/01/11 01:13:06;;;;;;;12.80;6.35;;;-2.00;99.90;;;;;;503078;236;27256;-68
2022/01/11 01:15:07;;;;;;;12.10;6.47;;;-2.00;99.90;;;;;;503053;236;27329;-68
2022/01/11 01:17:08;;;;;;;9.45;6.93;;;-1.90;99.90;;;;;;503021;236;27457;-68
2022/01/11 01:19:09;;;;;;;9.15;6.12;;;-1.90;99.90;;;;;;503019;236;27306;-69
2022/01/11 01:21:11;;;;;;;12.02;6.25;;;-1.90;99.90;;;;;;503017;236;27233;-68
2022/01/11 01:23:12;;;;;;;8.57;5.43;;;-1.90;99.90;;;;;;503039;236;27747;-68
2022/01/11 01:25:13;;;;;;;8.75;5.57;;;-1.90;99.90;;;;;;503048;236;28827;-69
2022/01/11 01:27:14;;;;;;;7.35;5.55;;;-2.00;99.90;;;;;;503051;236;27342;-68
2022/01/11 01:29:16;;;;;;;10.02;5.82;;;-2.00;99.90;;;;;;503041;236;27463;-68
2022/01/11 01:31:18;;;;;;;10.82;5.37;;;-2.00;99.90;;;;;;503063;236;27419;-68
2022/01/11 01:33:18;;;;;;;9.32;5.72;;;-2.00;99.90;;;;;;503040;236;27478;-68
2022/01/11 01:35:20;;;;;;;9.38;6.18;;;-2.00;99.90;;;;;;503044;236;27456;-68
2022/01/11 01:37:21;;;;;;;8.73;5.75;;;-2.00;99.90;;;;;;503037;236;27173;-68
2022/01/11 01:39:22;;;;;;;10.57;6.25;;;-2.00;99.90;;;;;;503020;236;27467;-68
2022/01/11 01:41:23;;;;;;;9.18;5.70;;;-2.00;99.90;;;;;;503025;236;27774;-68
2022/01/11 01:43:25;;;;;;;8.57;5.47;;;-2.00;99.90;;;;;;503014;236;27912;-68
2022/01/11 01:45:26;;;;;;;6.95;5.45;;;-2.00;99.90;;;;;;503034;236;27471;-69
2022/01/11 01:47:27;;;;;;;6.78;4.95;;;-2.00;99.90;;;;;;503003;236;27378;-68
2022/01/11 01:49:30;;;;;;;7.00;5.68;;;-2.00;99.90;;;;;;503071;236;27273;-68
2022/01/11 01:51:30;;;;;;;7.32;5.10;;;-2.00;99.90;;;;;;502973;236;27160;-68
2022/01/11 01:53:31;;;;;;;8.60;5.50;;;-2.00;99.90;;;;;;503036;236;27159;-68
2022/01/11 01:55:32;;;;;;;6.40;5.47;;;-2.00;99.90;;;;;;503046;236;27227;-68
2022/01/11 01:57:33;;;;;;;6.70;4.65;;;-2.00;99.90;;;;;;503046;236;27459;-68
2022/01/11 01:59:35;;;;;;;6.68;4.57;;;-2.00;99.90;;;;;;503065;236;27929;-68
2022/01/11 02:01:43;;;;;;;6.50;5.12;;;-2.00;99.90;;;;;;503069;236;28017;-68
2022/01/11 02:03:39;;;;;;;7.35;4.62;;;-2.00;99.90;;;;;;502368;236;28828;-68
2022/01/11 02:05:38;;;;;;;6.55;4.55;;;-2.00;99.90;;;;;;502956;236;27449;-68
2022/01/11 02:07:40;;;;;;;6.70;4.95;;;-2.00;99.90;;;;;;503067;236;27394;-70
2022/01/11 02:09:41;;;;;;;6.30;4.53;;;-2.00;99.90;;;;;;503101;236;27306;-68
2022/01/11 02:11:42;;;;;;;6.90;4.97;;;-2.00;99.90;;;;;;503097;236;27363;-69
2022/01/11 02:13:43;;;;;;;7.55;4.93;;;-2.10;99.90;;;;;;503081;236;27180;-69
2022/01/11 02:15:45;;;;;;;5.75;4.70;;;-2.20;99.90;;;;;;503070;236;27205;-68
2022/01/11 02:17:46;;;;;;;5.95;4.87;;;-2.20;99.90;;;;;;503105;236;27470;-68
2022/01/11 02:19:47;;;;;;;5.80;4.00;;;-2.20;99.90;;;;;;503096;236;27923;-68
2022/01/11 02:21:48;;;;;;;5.57;4.43;;;-2.20;99.90;;;;;;503089;236;27964;-69
2022/01/11 02:23:53;;;;;;;6.07;4.25;;;-2.10;99.90;;;;;;503064;236;27957;-68
2022/01/11 02:25:54;;;;;;;5.40;4.53;;;-2.20;99.90;;;;;;503070;236;27127;-68
2022/01/11 02:27:55;;;;;;;5.20;4.68;;;-2.20;99.90;;;;;;503102;236;27518;-68
2022/01/11 02:29:56;;;;;;;5.78;4.25;;;-2.20;99.90;;;;;;503097;236;27004;-68
2022/01/11 02:31:58;;;;;;;5.85;4.85;;;-2.20;99.90;;;;;;503086;236;27507;-68
2022/01/11 02:33:59;;;;;;;4.70;4.15;;;-2.20;99.90;;;;;;503054;236;27660;-68
2022/01/11 02:36:00;;;;;;;5.28;4.47;;;-2.20;99.90;;;;;;503124;236;27930;-71
2022/01/11 02:38:01;;;;;;;6.05;4.82;;;-2.20;99.90;;;;;;503110;236;28818;-68
2022/01/11 02:40:03;;;;;;;6.62;4.50;;;-2.20;99.90;;;;;;503114;236;27311;-68
2022/01/11 02:42:04;;;;;;;5.28;4.65;;;-2.20;99.90;;;;;;503097;236;27245;-69
2022/01/11 02:44:05;;;;;;;7.70;4.85;;;-2.20;99.90;;;;;;503038;236;27278;-68
2022/01/11 02:46:06;;;;;;;4.80;3.83;;;-2.20;99.90;;;;;;503112;236;27128;-68
2022/01/11 02:48:08;;;;;;;7.05;4.65;;;-2.20;99.90;;;;;;503094;236;27328;-68
2022/01/11 02:50:09;;;;;;;5.18;4.50;;;-2.20;99.90;;;;;;503068;236;27071;-68
2022/01/11 02:52:10;;;;;;;6.90;4.70;;;-2.20;99.90;;;;;;503070;236;27433;-68
2022/01/11 02:54:11;;;;;;;6.62;5.10;;;-2.30;99.90;;;;;;503076;236;28181;-68
2022/01/11 02:56:13;;;;;;;6.50;4.70;;;-2.30;99.90;;;;;;503088;236;27914;-68
2022/01/11 02:58:14;;;;;;;7.85;5.03;;;-2.30;99.90;;;;;;503078;236;28858;-69
2022/01/11 03:00:15;;;;;;;8.10;5.28;;;-2.30;99.90;;;;;;503067;236;27279;-68
2022/01/11 03:02:16;;;;;;;6.25;5.12;;;-2.30;99.90;;;;;;503054;236;27388;-68
2022/01/11 03:04:18;;;;;;;8.20;5.55;;;-2.30;99.90;;;;;;503099;236;27270;-68
2022/01/11 03:06:19;;;;;;;9.68;5.55;;;-2.30;99.90;;;;;;503101;236;27248;-68
2022/01/11 03:08:20;;;;;;;7.25;5.50;;;-2.30;99.90;;;;;;503054;236;27275;-68
2022/01/11 03:10:32;;;;;;;6.35;4.70;;;-2.30;99.90;;;;;;503037;236;27332;-68
2022/01/11 03:12:26;;;;;;;6.55;5.32;;;-2.30;99.90;;;;;;502438;236;27321;-68
2022/01/11 03:14:27;;;;;;;7.20;5.03;;;-2.30;99.90;;;;;;503078;236;27284;-68
2022/01/11 03:16:28;;;;;;;8.32;4.70;;;-2.30;99.90;;;;;;503081;236;27235;-69
2022/01/11 03:18:30;;;;;;;7.15;5.20;;;-2.30;99.90;;;;;;503051;236;27318;-68
2022/01/11 03:20:31;;;;;;;8.00;5.28;;;-2.40;99.90;;;;;;503048;236;27066;-68
2022/01/11 03:22:32;;;;;;;11.10;5.60;;;-2.40;99.90;;;;;;503082;236;27238;-68
2022/01/11 03:24:33;;;;;;;7.47;5.55;;;-2.40;99.90;;;;;;503063;236;27708;-68
2022/01/11 03:26:35;;;;;;;6.68;5.07;;;-2.30;99.90;;;;;;503040;236;27745;-68
2022/01/11 03:28:36;;;;;;;8.23;5.65;;;-2.30;99.90;;;;;;503073;236;27706;-68
2022/01/11 03:30:37;;;;;;;7.30;4.60;;;-2.20;99.90;;;;;;503030;236;27127;-69
2022/01/11 03:32:38;;;;;;;7.18;5.65;;;-2.20;99.90;;;;;;503058;236;27424;-68
2022/01/11 03:34:41;;;;;;;9.60;5.55;;;-2.30;99.90;;;;;;503085;236;27093;-68
2022/01/11 03:36:41;;;;;;;6.20;5.00;;;-2.20;99.90;;;;;;502919;236;27409;-68
2022/01/11 03:38:42;;;;;;;6.10;4.47;;;-2.20;99.90;;;;;;503010;236;27106;-68
2022/01/11 03:40:43;;;;;;;6.32;5.12;;;-2.20;99.90;;;;;;503065;236;27129;-68
2022/01/11 03:42:45;;;;;;;9.43;5.80;;;-2.20;99.90;;;;;;503078;236;27198;-68
2022/01/11 03:44:46;;;;;;;6.05;4.97;;;-2.20;99.90;;;;;;503040;236;27761;-68
2022/01/11 03:46:47;;;;;;;7.50;5.78;;;-2.20;99.90;;;;;;503052;236;27461;-69
2022/01/11 03:48:49;;;;;;;7.62;5.07;;;-2.20;99.90;;;;;;503083;236;27379;-68
2022/01/11 03:50:53;;;;;;;7.70;5.10;;;-2.30;99.90;;;;;;503071;236;27272;-68
2022/01/11 03:53:09;;;;;;;7.10;4.95;;;-2.30;99.90;;;;;;502794;236;27245;-69
2022/01/11 03:56:57;;;;;;;5.75;4.85;;;-2.30;99.90;;;;;;503080;236;27363;-68
2022/01/11 03:59:01;;;;;;;6.82;4.85;;;;;;;;;;503072;236;27232;-69
2022/01/11 04:01:00;;;;;;;8.10;5.12;;;-2.30;99.90;;;;;;502903;236;27052;-68
2022/01/11 04:03:03;;;;;;;7.90;4.47;;;-2.40;99.90;;;;;;503030;236;28735;-68
2022/01/11 04:05:03;;;;;;;6.93;4.53;;;-2.30;99.90;;;;;;502990;236;27631;-69
2022/01/11 04:07:04;;;;;;;8.10;5.50;;;-2.30;99.90;;;;;;503086;236;27226;-68
2022/01/11 04:09:07;;;;;;;6.60;4.90;;;;;;;;;;503046;236;27513;-68
2022/01/11 04:11:08;;;;;;;8.93;4.90;;;-2.30;99.90;;;;;;503031;236;27068;-68
2022/01/11 04:13:09;;;;;;;6.68;5.18;;;-2.30;99.90;;;;;;503068;236;27442;-68
2022/01/11 04:15:10;;;;;;;7.40;4.95;;;-2.40;99.90;;;;;;503072;236;27332;-68
2022/01/11 04:17:12;;;;;;;7.45;4.32;;;-2.40;99.90;;;;;;503067;236;27228;-68
2022/01/11 04:19:14;;;;;;;6.85;5.43;;;;;;;;;;503058;236;27480;-68
2022/01/11 04:21:15;;;;;;;5.82;4.93;;;-2.40;99.90;;;;;;503083;236;28262;-69
2022/01/11 04:23:16;;;;;;;7.05;5.22;;;-2.40;99.90;;;;;;503035;236;27255;-68
2022/01/11 04:25:18;;;;;;;4.78;4.20;;;-2.40;99.90;;;;;;503058;236;27275;-68
2022/01/11 04:27:19;;;;;;;6.57;5.62;;;-2.40;99.90;;;;;;503018;236;27378;-68
2022/01/11 04:29:20;;;;;;;6.50;4.32;;;-2.40;99.90;;;;;;503084;236;27319;-68
2022/01/11 04:31:22;;;;;;;7.05;4.68;;;-2.40;99.90;;;;;;503068;236;27040;-68
2022/01/11 04:33:24;;;;;;;7.32;5.35;;;-2.40;99.90;;;;;;503063;236;27099;-68
2022/01/11 04:35:24;;;;;;;7.05;4.62;;;-2.40;99.90;;;;;;503033;236;27338;-68
2022/01/11 04:37:25;;;;;;;5.40;4.43;;;-2.50;99.90;;;;;;503028;236;28462;-70
2022/01/11 04:39:27;;;;;;;7.40;3.65;;;-2.50;99.90;;;;;;503073;236;27870;-69
2022/01/11 04:41:28;;;;;;;8.10;4.53;;;-2.50;99.90;;;;;;503071;236;27508;-69
2022/01/11 04:43:30;;;;;;;6.78;4.37;;;-2.60;99.90;;;;;;503066;236;27202;-69
2022/01/11 04:45:30;;;;;;;6.20;4.30;;;-2.60;99.90;;;;;;502962;236;27181;-68
2022/01/11 04:47:32;;;;;;;5.07;4.22;;;-2.60;99.90;;;;;;503064;236;27310;-68
2022/01/11 04:49:33;;;;;;;5.00;4.28;;;-2.60;99.90;;;;;;503080;236;27202;-68
2022/01/11 04:51:35;;;;;;;6.53;4.70;;;;;;;;;;503055;236;27160;-68
2022/01/11 04:53:36;;;;;;;6.30;4.87;;;-2.50;99.90;;;;;;503062;236;26649;-68
2022/01/11 04:55:38;;;;;;;4.50;3.75;;;-2.50;99.90;;;;;;503083;236;27338;-69
2022/01/11 04:57:39;;;;;;;8.07;4.78;;;-2.50;99.90;;;;;;503053;236;27200;-68
2022/01/11 04:59:41;;;;;;;8.30;5.32;;;;;;;;;;503068;236;27274;-68
2022/01/11 05:01:43;;;;;;;5.20;4.15;;;-2.50;99.90;;;;;;503054;236;27186;-68
2022/01/11 05:03:44;;;;;;;6.05;4.55;;;-2.40;99.90;;;;;;503062;236;27157;-69
2022/01/11 05:05:46;;;;;;;4.82;4.10;;;-2.30;99.90;;;;;;503061;236;27214;-68
2022/01/11 05:07:46;;;;;;;7.43;4.70;;;-2.30;99.90;;;;;;503032;236;27154;-68
2022/01/11 05:09:49;;;;;;;6.12;5.05;;;-2.20;99.90;;;;;;503044;236;27318;-68
2022/01/11 05:11:49;;;;;;;7.75;4.80;;;-2.20;99.90;;;;;;502969;236;27486;-68
2022/01/11 05:13:50;;;;;;;6.10;4.90;;;-2.30;99.90;;;;;;503057;236;27231;-68
2022/01/11 05:15:51;;;;;;;9.32;5.45;;;-2.30;99.90;;;;;;503052;236;27234;-68
2022/01/11 05:17:53;;;;;;;5.35;4.07;;;-2.30;99.90;;;;;;503039;236;27929;-68
2022/01/11 05:19:54;;;;;;;5.87;4.28;;;-2.20;99.90;;;;;;503044;236;27679;-68
2022/01/11 05:21:55;;;;;;;7.40;4.95;;;-2.20;99.90;;;;;;502971;236;28774;-69
2022/01/11 05:23:56;;;;;;;6.70;5.30;;;-2.20;99.90;;;;;;502889;236;27343;-69
2022/01/11 05:25:58;;;;;;;9.52;5.20;;;-2.10;99.90;;;;;;502892;236;27434;-69
2022/01/11 05:28:02;;;;;;;9.82;5.20;;;-2.10;99.90;;;;;;502846;236;27291;-70
2022/01/11 05:30:03;;;;;;;11.48;7.05;;;-2.10;99.90;;;;;;502948;236;27580;-69
2022/01/11 05:32:04;;;;;;;10.23;5.45;;;-2.10;99.90;;;;;;503041;236;27426;-68
2022/01/11 05:34:05;;;;;;;8.70;5.20;;;-2.10;99.90;;;;;;503081;236;27798;-68
2022/01/11 05:36:07;;;;;;;10.68;5.60;;;-2.00;99.90;;;;;;503064;236;29170;-68
2022/01/11 05:38:08;;;;;;;10.73;6.53;;;-2.00;99.90;;;;;;503066;236;27408;-68
2022/01/11 05:40:09;;;;;;;8.75;5.82;;;-2.00;99.90;;;;;;503041;236;27251;-68
2022/01/11 05:42:11;;;;;;;14.02;5.50;;;-2.00;99.90;;;;;;503063;236;27509;-69
2022/01/11 05:44:12;;;;;;;10.88;6.05;;;-2.00;99.90;;;;;;503091;236;27445;-69
2022/01/11 05:46:13;;;;;;;11.40;6.35;;;-2.10;99.90;;;;;;503117;236;27363;-68
2022/01/11 05:48:14;;;;;;;15.13;6.57;;;-2.00;99.90;;;;;;503103;236;27429;-68
2022/01/11 05:50:15;;;;;;;12.30;5.95;;;-2.10;99.90;;;;;;503075;236;27981;-68
2022/01/11 05:52:17;;;;;;;11.77;5.45;;;-2.00;99.90;;;;;;503131;236;28034;-68
2022/01/11 05:54:18;;;;;;;10.13;5.80;;;-2.00;99.90;;;;;;503120;236;27433;-68
2022/01/11 05:56:19;;;;;;;11.88;5.57;;;-1.90;99.90;;;;;;503094;236;27475;-69
2022/01/11 05:58:20;;;;;;;12.85;6.68;;;-1.80;99.90;;;;;;503102;236;27449;-69
2022/01/11 06:00:22;;;;;;;13.38;6.25;;;-1.80;99.90;;;;;;503068;236;27391;-69
2022/01/11 06:02:23;;;;;;;10.80;6.00;;;-1.70;99.90;;;;;;503098;236;27579;-69
2022/01/11 06:04:24;;;;;;;11.20;6.05;;;-1.70;99.90;;;;;;503074;236;27926;-69
2022/01/11 06:06:26;;;;;;;13.18;6.35;;;-1.70;99.90;;;;;;503081;236;27961;-69
2022/01/11 06:08:27;;;;;;;11.90;6.47;;;-1.70;99.90;;;;;;503068;236;27748;-68
2022/01/11 06:10:28;;;;;;;11.68;6.50;;;-1.80;99.90;;;;;;503109;236;27371;-68
2022/01/11 06:12:29;;;;;;;9.93;5.80;;;-1.80;99.90;;;;;;503084;236;27551;-69
2022/01/11 06:14:31;;;;;;;10.00;5.75;;;-1.70;99.90;;;;;;503107;236;27360;-68
2022/01/11 06:16:32;;;;;;;10.77;6.30;;;-1.70;99.90;;;;;;503084;236;27388;-69
2022/01/11 06:18:33;;;;;;;9.90;6.60;;;-1.60;99.90;;;;;;503081;236;27605;-69
2022/01/11 06:20:34;;;;;;;8.50;5.93;;;-1.60;99.90;;;;;;503095;236;27442;-68
2022/01/11 06:22:36;;;;;;;12.52;6.35;;;-1.60;99.90;;;;;;503080;236;27933;-69
2022/01/11 06:24:37;;;;;;;10.40;6.28;;;-1.60;99.90;;;;;;503037;236;29140;-68
2022/01/11 06:26:38;;;;;;;10.45;5.80;;;-1.50;99.90;;;;;;503082;236;27465;-69
2022/01/11 06:28:39;;;;;;;8.95;6.03;;;-1.50;99.90;;;;;;503112;236;27583;-69
2022/01/11 06:30:41;;;;;;;11.98;6.32;;;-1.60;99.90;;;;;;503095;236;27453;-68
2022/01/11 06:32:43;;;;;;;10.27;6.37;;;-1.60;99.90;;;;;;503061;236;27475;-69
2022/01/11 06:34:46;;;;;;;11.02;6.30;;;-1.80;99.90;;;;;;502979;236;27438;-68
2022/01/11 06:36:44;;;;;;;12.10;6.07;;;-1.80;99.90;;;;;;502822;236;27466;-68
2022/01/11 06:38:46;;;;;;;12.93;6.00;;;-1.90;99.90;;;;;;503090;236;28070;-68
2022/01/11 06:40:47;;;;;;;12.32;5.95;;;-1.90;99.90;;;;;;503077;236;27940;-69
2022/01/11 06:42:48;;;;;;;8.40;5.12;;;-2.00;99.90;;;;;;503065;236;27459;-68
2022/01/11 06:44:49;;;;;;;11.65;6.20;;;-2.00;99.90;;;;;;503050;236;27529;-68
2022/01/11 06:46:51;;;;;;;12.00;6.07;;;-2.00;99.90;;;;;;503089;236;27514;-68
2022/01/11 06:48:52;;;;;;;11.00;6.00;;;-2.00;99.90;;;;;;503072;236;27150;-68
2022/01/11 06:50:53;;;;;;;10.10;5.57;;;-2.00;99.90;;;;;;503080;236;27302;-68
2022/01/11 06:52:54;;;;;;;9.90;5.90;;;-2.10;99.90;;;;;;503026;236;27343;-68
2022/01/11 06:54:56;;;;;;;8.57;5.62;;;-2.10;99.90;;;;;;503075;236;28628;-68
2022/01/11 06:56:57;;;;;;;13.68;6.12;;;-2.10;99.90;;;;;;503070;236;28925;-68
2022/01/11 06:58:58;;;;;;;10.40;6.32;;;-2.10;99.90;;;;;;503081;236;27345;-69
2022/01/11 07:00:59;;;;;;;16.45;8.35;;;-2.10;99.90;;;;;;503069;236;27296;-68
2022/01/11 07:03:01;;;;;;;16.50;7.65;;;-2.10;99.90;;;;;;503047;236;27280;-68
2022/01/11 07:05:02;;;;;;;15.70;8.00;;;-2.10;99.90;;;;;;503100;236;27375;-69
2022/01/11 07:07:03;;;;;;;15.18;7.60;;;-2.10;99.90;;;;;;503086;236;27351;-69
2022/01/11 07:09:04;;;;;;;12.65;8.00;;;-2.20;99.90;;;;;;503084;236;27346;-68
2022/01/11 07:11:06;;;;;;;13.85;7.53;;;-2.20;99.90;;;;;;503058;236;27455;-69
2022/01/11 07:13:07;;;;;;;12.10;6.85;;;-2.20;99.90;;;;;;503058;236;27871;-69
2022/01/11 07:15:08;;;;;;;16.45;9.10;;;-2.20;99.90;;;;;;503086;236;27465;-69
2022/01/11 07:17:09;;;;;;;17.92;8.60;;;-2.20;99.90;;;;;;503079;236;27108;-69
2022/01/11 07:19:11;;;;;;;13.57;7.18;;;-2.20;99.90;;;;;;503052;236;27439;-68
2022/01/11 07:21:12;;;;;;;15.90;8.85;;;-2.20;99.90;;;;;;503057;236;27131;-68
2022/01/11 07:23:13;;;;;;;15.80;8.50;;;-2.20;99.90;;;;;;503056;236;27343;-68
2022/01/11 07:25:15;;;;;;;13.45;6.80;;;-2.20;99.90;;;;;;503077;236;27666;-68
2022/01/11 07:27:16;;;;;;;11.63;6.72;;;-2.20;99.90;;;;;;503073;236;27778;-68
2022/01/11 07:29:17;;;;;;;12.13;7.18;;;-2.20;99.90;;;;;;503091;236;27533;-68
2022/01/11 07:31:18;;;;;;;14.20;6.87;;;-2.20;99.90;;;;;;503055;236;27391;-69
2022/01/11 07:33:20;;;;;;;15.40;7.55;;;-2.20;99.90;;;;;;503070;236;27520;-69
2022/01/11 07:35:23;;;;;;;13.07;7.22;;;-2.10;99.90;;;;;;503092;236;27487;-68
2022/01/11 07:37:22;;;;;;;12.73;7.35;;;-2.20;99.90;;;;;;502913;236;27369;-68
2022/01/11 07:39:23;;;;;;;11.05;6.95;;;-2.20;99.90;;;;;;503066;236;27286;-68
2022/01/11 07:41:25;;;;;;;9.98;5.97;;;-2.20;99.90;;;;;;503065;236;28120;-69
2022/01/11 07:43:26;;;;;;;9.27;6.95;;;-2.20;99.90;;;;;;503068;236;27588;-68
2022/01/11 07:45:27;;;;;;;13.00;7.12;;;-2.20;99.90;;;;;;503058;236;27488;-68
2022/01/11 07:47:28;;;;;;;11.02;6.82;;;-2.30;99.90;;;;;;503047;236;27367;-68
2022/01/11 07:49:30;;;;;;;12.52;7.15;;;-2.30;99.90;;;;;;503057;236;27412;-69
2022/01/11 07:51:31;;;;;;;11.82;6.80;;;-2.30;99.90;;;;;;503081;236;27249;-68
2022/01/11 07:53:32;;;;;;;10.40;6.43;;;-2.30;99.90;;;;;;503070;236;27301;-69
2022/01/11 07:55:33;;;;;;;13.77;7.10;;;-2.30;99.90;;;;;;503058;236;28046;-68
2022/01/11 07:57:35;;;;;;;8.40;6.00;;;-2.30;99.90;;;;;;503055;236;29014;-69
2022/01/11 07:59:36;;;;;;;9.88;6.80;;;-2.30;99.90;;;;;;503085;236;27433;-68
2022/01/11 08:01:38;;;;;;;10.73;5.28;;;-2.30;99.90;;;;;;503069;236;27157;-68
2022/01/11 08:03:38;;;;;;;8.68;6.20;;;-2.30;99.90;;;;;;503069;236;27408;-68
2022/01/11 08:05:40;;;;;;;9.38;6.15;;;-2.30;99.90;;;;;;503047;236;27770;-68
2022/01/11 08:07:42;;;;;;;11.95;7.05;;;-2.30;99.90;;;;;;503080;236;29733;-68
2022/01/11 08:09:42;;;;;;;15.63;7.55;;;-2.30;99.90;;;;;;503081;236;27312;-69
2022/01/11 08:11:44;;;;;;;10.73;7.35;;;-2.30;99.90;;;;;;503093;236;27462;-68
2022/01/11 08:13:45;;;;;;;11.50;7.03;;;-2.30;99.90;;;;;;503078;236;27530;-68
2022/01/11 08:15:46;;;;;;;12.88;7.25;;;-2.30;99.90;;;;;;503075;236;27239;-68
2022/01/11 08:17:47;;;;;;;13.15;7.22;;;-2.30;99.90;;;;;;503030;236;27594;-70
2022/01/11 08:19:48;;;;;;;15.90;6.87;;;-2.20;99.90;;;;;;503067;236;27546;-68
2022/01/11 08:21:50;;;;;;;11.73;7.00;;;-2.20;99.90;;;;;;503060;236;27968;-69
2022/01/11 08:23:51;;;;;;;12.37;6.78;;;-2.20;99.90;;;;;;503042;236;28792;-68
2022/01/11 08:25:52;;;;;;;11.43;6.90;;;-2.20;99.90;;;;;;503049;236;27222;-69
2022/01/11 08:27:54;;;;;;;9.93;6.82;;;-2.20;99.90;;;;;;503086;236;27390;-68
2022/01/11 08:29:55;;;;;;;8.85;6.20;;;-2.20;99.90;;;;;;503056;236;27446;-68
2022/01/11 08:31:56;;;;;;;10.93;7.40;;;-2.20;99.90;;;;;;503030;236;27395;-68
2022/01/11 08:33:57;;;;;;;11.18;7.30;;;-2.10;99.90;;;;;;503003;236;27607;-68
2022/01/11 08:35:59;;;;;;;9.85;6.30;;;-2.10;99.90;;;;;;503064;236;27466;-68
2022/01/11 08:38:00;;;;;;;10.73;6.93;;;-2.00;99.90;;;;;;503067;236;27935;-68
2022/01/11 08:40:01;;;;;;;11.02;7.12;;;-1.90;99.90;;;;;;503057;236;27985;-69
2022/01/11 08:42:02;;;;;;;10.02;6.50;;;-2.00;99.90;;;;;;503040;236;27495;-68
2022/01/11 08:44:04;;;;;;;9.63;5.78;;;-1.90;99.90;;;;;;503018;236;27516;-68
2022/01/11 08:46:05;;;;;;;8.07;5.10;;;-2.00;99.90;;;;;;503046;236;27450;-68
2022/01/11 08:48:06;;;;;;;11.35;6.62;;;-2.00;99.90;;;;;;503082;236;27351;-68
2022/01/11 08:50:07;;;;;;;6.82;5.03;;;-1.90;99.90;;;;;;503062;236;27581;-69
2022/01/11 08:52:09;;;;;;;8.80;5.55;;;-1.90;99.90;;;;;;503059;236;27473;-68
2022/01/11 08:54:11;;;;;;;11.00;7.00;;;-1.90;99.90;;;;;;503044;236;27443;-68
2022/01/11 08:56:15;;;;;;;11.55;7.55;;;-1.90;99.90;;;;;;502965;236;27881;-68
2022/01/11 08:58:13;;;;;;;12.57;6.53;;;-1.80;99.90;;;;;;502757;236;27944;-68
2022/01/11 09:00:17;;;;;;;11.02;7.00;;;-1.70;99.90;;;;;;503021;236;27451;-68
2022/01/11 09:02:15;;;;;;;9.68;7.22;;;-1.50;99.90;;;;;;502790;236;27530;-68
2022/01/11 09:04:16;;;;;;;13.48;7.90;;;-1.50;99.90;;;;;;503085;236;27573;-68
2022/01/11 09:06:17;;;;;;;8.73;6.55;;;-1.30;99.90;;;;;;503044;236;27492;-68
2022/01/11 09:08:19;;;;;;;13.50;7.70;;;-1.30;99.90;;;;;;503067;236;27494;-68
2022/01/11 09:10:20;;;;;;;11.65;7.53;;;-1.20;99.90;;;;;;503028;236;27963;-68
2022/01/11 09:12:21;;;;;;;11.48;7.43;;;-1.10;99.90;;;;;;503054;236;27996;-69
2022/01/11 09:14:22;;;;;;;12.85;7.55;;;-1.00;99.90;;;;;;503081;236;29086;-69
2022/01/11 09:16:24;;;;;;;12.80;7.40;;;-0.80;99.90;;;;;;503029;236;27484;-68
2022/01/11 09:18:25;;;;;;;10.85;7.00;;;-0.70;99.90;;;;;;503001;236;27467;-69
2022/01/11 09:20:26;;;;;;;12.45;7.93;;;-0.70;99.90;;;;;;503056;236;27429;-68
2022/01/11 09:22:27;;;;;;;11.38;7.30;;;-0.60;99.90;;;;;;503043;236;27489;-69
2022/01/11 09:24:31;;;;;;;9.95;6.80;;;-0.50;99.90;;;;;;503068;236;27587;-69
2022/01/11 09:26:30;;;;;;;12.93;7.40;;;-0.50;99.90;;;;;;502919;236;27536;-69
2022/01/11 09:28:31;;;;;;;11.75;6.70;;;-0.50;99.90;;;;;;503062;236;28062;-69
2022/01/11 09:30:32;;;;;;;11.32;7.05;;;-0.50;99.90;;;;;;503053;236;29080;-69
2022/01/11 09:32:34;;;;;;;12.18;8.10;;;-0.50;99.90;;;;;;503054;236;27498;-69
2022/01/11 09:34:37;;;;;;;14.82;7.18;;;-0.40;99.90;;;;;;503058;236;27473;-68
2022/01/11 09:36:37;;;;;;;10.27;6.70;;;-0.40;99.90;;;;;;502923;236;27435;-69
2022/01/11 09:38:37;;;;;;;13.20;7.55;;;-0.30;99.90;;;;;;503064;236;27493;-69
2022/01/11 09:40:39;;;;;;;13.25;6.78;;;-0.30;99.90;;;;;;503047;236;27434;-69
2022/01/11 09:42:40;;;;;;;11.85;7.25;;;-0.20;99.90;;;;;;503077;236;27954;-68
2022/01/11 09:44:41;;;;;;;14.15;6.25;;;-0.10;99.90;;;;;;503054;236;28031;-69
2022/01/11 09:46:42;;;;;;;9.10;6.53;;;-0.10;99.90;;;;;;503020;236;27909;-68
2022/01/11 09:48:45;;;;;;;11.20;6.62;;;0.00;99.90;;;;;;503052;236;27535;-68
2022/01/11 09:50:45;;;;;;;11.00;6.80;;;0.10;99.90;;;;;;503036;236;27490;-69
2022/01/11 09:52:46;;;;;;;10.30;6.00;;;0.10;99.90;;;;;;503062;236;27454;-69
2022/01/11 09:54:47;;;;;;;10.25;6.07;;;0.20;99.90;;;;;;503069;236;27573;-69
2022/01/11 09:56:49;;;;;;;9.30;6.40;;;0.20;99.90;;;;;;503028;236;27445;-69
2022/01/11 09:58:50;;;;;;;8.98;6.82;;;0.20;99.90;;;;;;503016;236;27518;-69
2022/01/11 10:00:51;;;;;;;11.50;7.10;;;0.30;99.90;;;;;;503071;236;27565;-69
2022/01/11 10:02:53;;;;;;;12.23;7.20;;;0.30;99.90;;;;;;503068;236;27958;-69
2022/01/11 10:04:54;;;;;;;9.10;7.12;;;0.40;99.90;;;;;;503062;236;27958;-69
2022/01/11 10:06:55;;;;;;;8.52;6.32;;;0.50;99.90;;;;;;503036;236;28015;-68
2022/01/11 10:08:56;;;;;;;10.88;6.87;;;0.60;99.90;;;;;;503063;236;28068;-69
2022/01/11 10:10:58;;;;;;;9.73;6.80;;;0.60;99.90;;;;;;503078;236;27497;-68
2022/01/11 10:13:03;;;;;;;9.90;6.78;;;0.70;99.90;;;;;;503081;236;27436;-69
2022/01/11 10:15:00;;;;;;;12.60;7.30;;;0.80;99.90;;;;;;502745;236;27502;-68
2022/01/11 10:17:01;;;;;;;11.52;7.10;;;0.80;99.90;;;;;;503032;236;27441;-69
2022/01/11 10:19:03;;;;;;;11.93;7.70;;;0.80;99.90;;;;;;503046;236;27549;-69
2022/01/11 10:21:04;;;;;;;10.63;7.12;;;0.90;99.90;;;;;;503065;236;27485;-69
2022/01/11 10:23:08;;;;;;;11.15;6.30;;;0.90;99.90;;;;;;503054;236;27431;-69
2022/01/11 10:25:09;;;;;;;10.52;6.47;;;0.90;99.90;;;;;;503070;236;27998;-69
2022/01/11 10:27:10;;;;;;;9.52;6.10;;;0.90;99.90;;;;;;503055;236;29210;-69
2022/01/11 10:29:11;;;;;;;13.23;7.22;;;0.90;99.90;;;;;;503024;236;27501;-69
2022/01/11 10:31:13;;;;;;;10.13;6.50;;;1.00;99.90;;;;;;503027;236;27465;-69
2022/01/11 10:33:14;;;;;;;10.27;7.00;;;1.00;99.90;;;;;;503068;236;27538;-69